Terminal Aerodrome Forecast
Issued by NWS

Home | Current Version | Previous Version | Graphics & Text | Print | Product List | Glossary On
Versions: 1 2 3 4 5 6 7 8 9 10 11 12 13 14 15 16 17 18 19 20
000
FTUS43 KBIS 282300
TAFJMS
TAF
KJMS 282336Z 2900/2924 16009KT P6SM FEW008 OVC025
     FM290900 VRB03KT 4SM BR OVC003
     FM291500 34008KT P6SM SCT100=

USA.gov is the U.S. government's official web portal to all federal, state and local government web resources and services.